sensor_id;sensor_type;location;lat;lon;timestamp;temperature;humidity
78289;DHT22;67539;48.752;12.922;2023-05-07T00:01:50;11.90;99.90
78289;DHT22;67539;48.752;12.922;2023-05-07T00:04:18;11.80;99.90
78289;DHT22;67539;48.752;12.922;2023-05-07T00:06:48;11.80;99.90
78289;DHT22;67539;48.752;12.922;2023-05-07T00:09:16;11.80;99.90
78289;DHT22;67539;48.752;12.922;2023-05-07T00:11:45;11.90;99.90
78289;DHT22;67539;48.752;12.922;2023-05-07T00:14:14;11.80;99.90
78289;DHT22;67539;48.752;12.922;2023-05-07T00:16:42;11.80;99.90
78289;DHT22;67539;48.752;12.922;2023-05-07T00:19:11;11.80;99.90
78289;DHT22;67539;48.752;12.922;2023-05-07T00:21:39;11.80;99.90
78289;DHT22;67539;48.752;12.922;2023-05-07T00:24:07;11.90;99.90
78289;DHT22;67539;48.752;12.922;2023-05-07T00:26:36;11.90;99.90
78289;DHT22;67539;48.752;12.922;2023-05-07T00:29:04;11.90;99.90
78289;DHT22;67539;48.752;12.922;2023-05-07T00:31:34;11.90;99.90
78289;DHT22;67539;48.752;12.922;2023-05-07T00:34:03;11.90;99.90
78289;DHT22;67539;48.752;12.922;2023-05-07T00:36:31;11.90;99.90
78289;DHT22;67539;48.752;12.922;2023-05-07T00:39:00;11.90;99.90
78289;DHT22;67539;48.752;12.922;2023-05-07T00:41:30;11.90;99.90
78289;DHT22;67539;48.752;12.922;2023-05-07T00:43:59;11.90;99.90
78289;DHT22;67539;48.752;12.922;2023-05-07T00:46:27;11.90;99.90
78289;DHT22;67539;48.752;12.922;2023-05-07T00:48:59;11.90;99.90
78289;DHT22;67539;48.752;12.922;2023-05-07T00:51:29;11.90;99.90
78289;DHT22;67539;48.752;12.922;2023-05-07T00:53:59;11.90;99.90
78289;DHT22;67539;48.752;12.922;2023-05-07T00:56:27;11.80;99.90
78289;DHT22;67539;48.752;12.922;2023-05-07T00:58:56;11.70;99.90
78289;DHT22;67539;48.752;12.922;2023-05-07T01:01:24;11.70;99.90
78289;DHT22;67539;48.752;12.922;2023-05-07T01:03:53;11.60;99.90
78289;DHT22;67539;48.752;12.922;2023-05-07T01:06:25;11.60;99.90
78289;DHT22;67539;48.752;12.922;2023-05-07T01:08:55;11.50;99.90
78289;DHT22;67539;48.752;12.922;2023-05-07T01:11:24;11.50;99.90
78289;DHT22;67539;48.752;12.922;2023-05-07T01:13:53;11.40;99.90
78289;DHT22;67539;48.752;12.922;2023-05-07T01:16:22;11.40;99.90
78289;DHT22;67539;48.752;12.922;2023-05-07T01:18:50;11.40;99.90
78289;DHT22;67539;48.752;12.922;2023-05-07T01:21:24;11.30;99.90
78289;DHT22;67539;48.752;12.922;2023-05-07T01:23:58;11.30;99.90
78289;DHT22;67539;48.752;12.922;2023-05-07T01:26:27;11.20;99.90
78289;DHT22;67539;48.752;12.922;2023-05-07T01:28:56;11.20;99.90
78289;DHT22;67539;48.752;12.922;2023-05-07T01:31:24;11.10;99.90
78289;DHT22;67539;48.752;12.922;2023-05-07T01:33:54;11.10;99.90
78289;DHT22;67539;48.752;12.922;2023-05-07T01:36:23;11.10;99.90
78289;DHT22;67539;48.752;12.922;2023-05-07T01:38:54;11.10;99.90
78289;DHT22;67539;48.752;12.922;2023-05-07T01:41:26;11.10;99.90
78289;DHT22;67539;48.752;12.922;2023-05-07T01:43:55;11.00;99.90
78289;DHT22;67539;48.752;12.922;2023-05-07T01:46:26;11.00;99.90
78289;DHT22;67539;48.752;12.922;2023-05-07T01:48:55;10.90;99.90
78289;DHT22;67539;48.752;12.922;2023-05-07T01:51:23;10.90;99.90
78289;DHT22;67539;48.752;12.922;2023-05-07T01:53:53;10.90;99.90
78289;DHT22;67539;48.752;12.922;2023-05-07T01:56:22;10.90;99.90
78289;DHT22;67539;48.752;12.922;2023-05-07T01:58:52;10.80;99.90
78289;DHT22;67539;48.752;12.922;2023-05-07T02:01:20;10.80;99.90
78289;DHT22;67539;48.752;12.922;2023-05-07T02:03:49;10.80;99.90
78289;DHT22;67539;48.752;12.922;2023-05-07T02:06:22;10.80;99.90
78289;DHT22;67539;48.752;12.922;2023-05-07T02:08:55;10.70;99.90
78289;DHT22;67539;48.752;12.922;2023-05-07T02:11:24;10.60;99.90
78289;DHT22;67539;48.752;12.922;2023-05-07T02:13:54;10.60;99.90
78289;DHT22;67539;48.752;12.922;2023-05-07T02:16:22;10.50;99.90
78289;DHT22;67539;48.752;12.922;2023-05-07T02:18:51;10.50;99.90
78289;DHT22;67539;48.752;12.922;2023-05-07T02:21:20;10.40;99.90
78289;DHT22;67539;48.752;12.922;2023-05-07T02:23:48;10.40;99.90
78289;DHT22;67539;48.752;12.922;2023-05-07T02:26:16;10.40;99.90
78289;DHT22;67539;48.752;12.922;2023-05-07T02:28:45;10.50;99.90
78289;DHT22;67539;48.752;12.922;2023-05-07T02:31:15;10.40;99.90
78289;DHT22;67539;48.752;12.922;2023-05-07T02:33:43;10.40;99.90
78289;DHT22;67539;48.752;12.922;2023-05-07T02:36:12;10.30;99.90
78289;DHT22;67539;48.752;12.922;2023-05-07T02:38:55;10.30;99.90
78289;DHT22;67539;48.752;12.922;2023-05-07T02:41:24;10.20;99.90
78289;DHT22;67539;48.752;12.922;2023-05-07T02:43:52;10.20;99.90
78289;DHT22;67539;48.752;12.922;2023-05-07T02:46:22;10.20;99.90
78289;DHT22;67539;48.752;12.922;2023-05-07T02:48:58;10.20;99.90
78289;DHT22;67539;48.752;12.922;2023-05-07T02:51:26;10.20;99.90
78289;DHT22;67539;48.752;12.922;2023-05-07T02:53:57;10.20;99.90
78289;DHT22;67539;48.752;12.922;2023-05-07T02:56:26;10.10;99.90
78289;DHT22;67539;48.752;12.922;2023-05-07T02:58:54;10.10;99.90
78289;DHT22;67539;48.752;12.922;2023-05-07T03:01:27;10.10;99.90
78289;DHT22;67539;48.752;12.922;2023-05-07T03:04:02;10.10;99.90
78289;DHT22;67539;48.752;12.922;2023-05-07T03:06:30;10.10;99.90
78289;DHT22;67539;48.752;12.922;2023-05-07T03:08:59;10.10;99.90
78289;DHT22;67539;48.752;12.922;2023-05-07T03:11:27;10.10;99.90
78289;DHT22;67539;48.752;12.922;2023-05-07T03:13:56;10.10;99.90
78289;DHT22;67539;48.752;12.922;2023-05-07T03:16:26;10.10;99.90
78289;DHT22;67539;48.752;12.922;2023-05-07T03:18:55;10.10;99.90
78289;DHT22;67539;48.752;12.922;2023-05-07T03:21:24;10.10;99.90
78289;DHT22;67539;48.752;12.922;2023-05-07T03:23:53;10.10;99.90
78289;DHT22;67539;48.752;12.922;2023-05-07T03:26:22;10.10;99.90
78289;DHT22;67539;48.752;12.922;2023-05-07T03:28:50;10.10;99.90
78289;DHT22;67539;48.752;12.922;2023-05-07T03:31:18;10.10;99.90
78289;DHT22;67539;48.752;12.922;2023-05-07T03:33:52;10.10;99.90
78289;DHT22;67539;48.752;12.922;2023-05-07T03:36:21;10.10;99.90
78289;DHT22;67539;48.752;12.922;2023-05-07T03:38:50;10.10;99.90
78289;DHT22;67539;48.752;12.922;2023-05-07T03:41:21;10.00;99.90
78289;DHT22;67539;48.752;12.922;2023-05-07T03:43:50;10.00;99.90
78289;DHT22;67539;48.752;12.922;2023-05-07T03:46:18;9.90;99.90
78289;DHT22;67539;48.752;12.922;2023-05-07T03:48:47;9.90;99.90
78289;DHT22;67539;48.752;12.922;2023-05-07T03:51:18;9.90;99.90
78289;DHT22;67539;48.752;12.922;2023-05-07T03:53:46;9.90;99.90
78289;DHT22;67539;48.752;12.922;2023-05-07T03:56:15;9.90;99.90
78289;DHT22;67539;48.752;12.922;2023-05-07T03:58:46;9.90;99.90
78289;DHT22;67539;48.752;12.922;2023-05-07T04:01:15;9.90;99.90
78289;DHT22;67539;48.752;12.922;2023-05-07T04:03:44;9.90;99.90
78289;DHT22;67539;48.752;12.922;2023-05-07T04:06:12;9.90;99.90
78289;DHT22;67539;48.752;12.922;2023-05-07T04:08:45;9.90;99.90
78289;DHT22;67539;48.752;12.922;2023-05-07T04:11:13;9.90;99.90
78289;DHT22;67539;48.752;12.922;2023-05-07T04:13:42;10.00;99.90
78289;DHT22;67539;48.752;12.922;2023-05-07T04:16:10;10.00;99.90
78289;DHT22;67539;48.752;12.922;2023-05-07T04:18:39;10.00;99.90
78289;DHT22;67539;48.752;12.922;2023-05-07T04:21:14;10.00;99.90
78289;DHT22;67539;48.752;12.922;2023-05-07T04:23:42;10.00;99.90
78289;DHT22;67539;48.752;12.922;2023-05-07T04:26:14;10.10;99.90
78289;DHT22;67539;48.752;12.922;2023-05-07T04:28:44;10.10;99.90
78289;DHT22;67539;48.752;12.922;2023-05-07T04:31:14;10.10;99.90
78289;DHT22;67539;48.752;12.922;2023-05-07T04:33:47;10.20;99.90
78289;DHT22;67539;48.752;12.922;2023-05-07T04:36:15;10.20;99.90
78289;DHT22;67539;48.752;12.922;2023-05-07T04:38:49;10.30;99.90
78289;DHT22;67539;48.752;12.922;2023-05-07T04:41:20;10.30;99.90
78289;DHT22;67539;48.752;12.922;2023-05-07T04:43:49;10.40;99.90
78289;DHT22;67539;48.752;12.922;2023-05-07T04:46:21;10.50;99.90
78289;DHT22;67539;48.752;12.922;2023-05-07T04:48:49;10.50;99.90
78289;DHT22;67539;48.752;12.922;2023-05-07T04:51:17;10.60;99.90
78289;DHT22;67539;48.752;12.922;2023-05-07T04:53:45;10.60;99.90
78289;DHT22;67539;48.752;12.922;2023-05-07T04:56:15;10.70;99.90
78289;DHT22;67539;48.752;12.922;2023-05-07T04:58:46;10.80;99.90
78289;DHT22;67539;48.752;12.922;2023-05-07T05:01:17;10.90;99.90
78289;DHT22;67539;48.752;12.922;2023-05-07T05:03:46;10.90;99.90
78289;DHT22;67539;48.752;12.922;2023-05-07T05:06:15;11.00;99.90
78289;DHT22;67539;48.752;12.922;2023-05-07T05:08:43;11.10;99.90
78289;DHT22;67539;48.752;12.922;2023-05-07T05:11:12;11.20;99.90
78289;DHT22;67539;48.752;12.922;2023-05-07T05:13:40;11.30;99.90
78289;DHT22;67539;48.752;12.922;2023-05-07T05:16:15;11.40;99.90
78289;DHT22;67539;48.752;12.922;2023-05-07T05:18:44;11.50;99.90
78289;DHT22;67539;48.752;12.922;2023-05-07T05:21:15;11.50;99.90
78289;DHT22;67539;48.752;12.922;2023-05-07T05:23:46;11.60;99.90
78289;DHT22;67539;48.752;12.922;2023-05-07T05:26:18;11.70;99.90
78289;DHT22;67539;48.752;12.922;2023-05-07T05:28:48;11.80;99.90
78289;DHT22;67539;48.752;12.922;2023-05-07T05:31:20;11.90;99.90
78289;DHT22;67539;48.752;12.922;2023-05-07T05:33:50;12.00;99.90
78289;DHT22;67539;48.752;12.922;2023-05-07T05:36:18;12.10;99.90
78289;DHT22;67539;48.752;12.922;2023-05-07T05:38:48;12.20;99.90
78289;DHT22;67539;48.752;12.922;2023-05-07T05:41:17;12.30;99.90
78289;DHT22;67539;48.752;12.922;2023-05-07T05:43:46;12.40;99.90
78289;DHT22;67539;48.752;12.922;2023-05-07T05:46:14;12.50;99.90
78289;DHT22;67539;48.752;12.922;2023-05-07T05:48:45;12.60;99.90
78289;DHT22;67539;48.752;12.922;2023-05-07T05:51:13;12.70;99.90
78289;DHT22;67539;48.752;12.922;2023-05-07T05:53:42;12.70;99.90
78289;DHT22;67539;48.752;12.922;2023-05-07T05:56:10;12.90;99.90
78289;DHT22;67539;48.752;12.922;2023-05-07T05:58:41;13.00;99.90
78289;DHT22;67539;48.752;12.922;2023-05-07T06:01:09;13.00;99.90
78289;DHT22;67539;48.752;12.922;2023-05-07T06:03:38;13.10;99.90
78289;DHT22;67539;48.752;12.922;2023-05-07T06:06:13;13.20;99.90
78289;DHT22;67539;48.752;12.922;2023-05-07T06:08:43;13.30;99.90
78289;DHT22;67539;48.752;12.922;2023-05-07T06:11:16;13.50;99.90
78289;DHT22;67539;48.752;12.922;2023-05-07T06:13:46;13.70;99.90
78289;DHT22;67539;48.752;12.922;2023-05-07T06:16:15;13.80;99.90
78289;DHT22;67539;48.752;12.922;2023-05-07T06:18:44;14.00;99.90
78289;DHT22;67539;48.752;12.922;2023-05-07T06:21:16;14.20;99.90
78289;DHT22;67539;48.752;12.922;2023-05-07T06:23:44;14.40;99.90
78289;DHT22;67539;48.752;12.922;2023-05-07T06:26:13;14.50;99.90
78289;DHT22;67539;48.752;12.922;2023-05-07T06:28:45;14.60;99.90
78289;DHT22;67539;48.752;12.922;2023-05-07T06:31:16;14.80;99.90
78289;DHT22;67539;48.752;12.922;2023-05-07T06:33:53;14.80;99.90
78289;DHT22;67539;48.752;12.922;2023-05-07T06:36:29;14.90;99.90
78289;DHT22;67539;48.752;12.922;2023-05-07T06:39:00;14.90;99.90
78289;DHT22;67539;48.752;12.922;2023-05-07T06:41:28;15.00;99.90
78289;DHT22;67539;48.752;12.922;2023-05-07T06:44:01;15.00;99.90
78289;DHT22;67539;48.752;12.922;2023-05-07T06:46:35;15.00;99.90
78289;DHT22;67539;48.752;12.922;2023-05-07T06:49:06;15.10;99.90
78289;DHT22;67539;48.752;12.922;2023-05-07T06:51:36;15.10;99.90
78289;DHT22;67539;48.752;12.922;2023-05-07T06:54:06;15.20;99.90
78289;DHT22;67539;48.752;12.922;2023-05-07T06:56:37;15.30;99.90
78289;DHT22;67539;48.752;12.922;2023-05-07T06:59:06;15.40;99.90
78289;DHT22;67539;48.752;12.922;2023-05-07T07:01:39;15.50;99.90
78289;DHT22;67539;48.752;12.922;2023-05-07T07:04:09;15.50;99.90
78289;DHT22;67539;48.752;12.922;2023-05-07T07:06:41;15.60;99.90
78289;DHT22;67539;48.752;12.922;2023-05-07T07:09:12;15.80;99.90
78289;DHT22;67539;48.752;12.922;2023-05-07T07:11:41;15.90;99.90
78289;DHT22;67539;48.752;12.922;2023-05-07T07:14:09;15.90;99.90
78289;DHT22;67539;48.752;12.922;2023-05-07T07:16:44;16.10;99.90
78289;DHT22;67539;48.752;12.922;2023-05-07T07:19:15;16.20;99.90
78289;DHT22;67539;48.752;12.922;2023-05-07T07:21:47;16.40;99.90
78289;DHT22;67539;48.752;12.922;2023-05-07T07:24:16;16.50;99.90
78289;DHT22;67539;48.752;12.922;2023-05-07T07:26:52;16.60;99.90
78289;DHT22;67539;48.752;12.922;2023-05-07T07:29:23;16.80;99.90
78289;DHT22;67539;48.752;12.922;2023-05-07T07:31:54;16.90;99.90
78289;DHT22;67539;48.752;12.922;2023-05-07T07:34:22;17.00;99.90
78289;DHT22;67539;48.752;12.922;2023-05-07T07:36:53;17.20;99.90
78289;DHT22;67539;48.752;12.922;2023-05-07T07:39:23;17.20;99.90
78289;DHT22;67539;48.752;12.922;2023-05-07T07:41:54;17.30;99.90
78289;DHT22;67539;48.752;12.922;2023-05-07T07:44:25;17.40;99.90
78289;DHT22;67539;48.752;12.922;2023-05-07T07:46:58;17.50;99.90
78289;DHT22;67539;48.752;12.922;2023-05-07T07:49:27;17.60;99.90
78289;DHT22;67539;48.752;12.922;2023-05-07T07:51:59;17.70;99.90
78289;DHT22;67539;48.752;12.922;2023-05-07T07:54:29;17.80;99.90
78289;DHT22;67539;48.752;12.922;2023-05-07T07:56:58;17.90;99.90
78289;DHT22;67539;48.752;12.922;2023-05-07T07:59:27;18.10;99.90
78289;DHT22;67539;48.752;12.922;2023-05-07T08:01:56;18.30;99.90
78289;DHT22;67539;48.752;12.922;2023-05-07T08:04:26;18.40;99.60
78289;DHT22;67539;48.752;12.922;2023-05-07T08:06:56;18.60;99.50
78289;DHT22;67539;48.752;12.922;2023-05-07T08:09:26;18.70;99.10
78289;DHT22;67539;48.752;12.922;2023-05-07T08:11:57;18.80;98.40
78289;DHT22;67539;48.752;12.922;2023-05-07T08:14:26;19.00;98.50
78289;DHT22;67539;48.752;12.922;2023-05-07T08:16:55;19.20;97.60
78289;DHT22;67539;48.752;12.922;2023-05-07T08:19:24;19.30;97.90
78289;DHT22;67539;48.752;12.922;2023-05-07T08:21:53;19.50;97.60
78289;DHT22;67539;48.752;12.922;2023-05-07T08:24:25;19.70;97.50
78289;DHT22;67539;48.752;12.922;2023-05-07T08:26:54;19.90;97.70
78289;DHT22;67539;48.752;12.922;2023-05-07T08:29:22;20.00;97.60
78289;DHT22;67539;48.752;12.922;2023-05-07T08:31:51;20.10;96.90
78289;DHT22;67539;48.752;12.922;2023-05-07T08:34:21;20.20;97.20
78289;DHT22;67539;48.752;12.922;2023-05-07T08:36:52;20.30;96.90
78289;DHT22;67539;48.752;12.922;2023-05-07T08:39:22;20.40;95.30
78289;DHT22;67539;48.752;12.922;2023-05-07T08:41:55;20.20;95.80
78289;DHT22;67539;48.752;12.922;2023-05-07T08:44:26;20.10;94.40
78289;DHT22;67539;48.752;12.922;2023-05-07T08:46:57;19.90;94.60
78289;DHT22;67539;48.752;12.922;2023-05-07T08:49:27;19.80;93.40
78289;DHT22;67539;48.752;12.922;2023-05-07T08:51:56;19.80;94.70
78289;DHT22;67539;48.752;12.922;2023-05-07T08:54:25;19.90;94.90
78289;DHT22;67539;48.752;12.922;2023-05-07T08:56:55;20.10;94.90
78289;DHT22;67539;48.752;12.922;2023-05-07T08:59:24;20.20;95.00
78289;DHT22;67539;48.752;12.922;2023-05-07T09:01:52;20.30;95.50
78289;DHT22;67539;48.752;12.922;2023-05-07T09:04:20;20.40;95.10
78289;DHT22;67539;48.752;12.922;2023-05-07T09:06:49;20.50;94.90
78289;DHT22;67539;48.752;12.922;2023-05-07T09:09:21;20.50;93.90
78289;DHT22;67539;48.752;12.922;2023-05-07T09:11:58;20.50;93.10
78289;DHT22;67539;48.752;12.922;2023-05-07T09:14:29;20.50;93.60
78289;DHT22;67539;48.752;12.922;2023-05-07T09:16:59;20.40;93.30
78289;DHT22;67539;48.752;12.922;2023-05-07T09:19:27;20.40;93.70
78289;DHT22;67539;48.752;12.922;2023-05-07T09:21:59;20.40;93.00
78289;DHT22;67539;48.752;12.922;2023-05-07T09:24:33;20.50;94.30
78289;DHT22;67539;48.752;12.922;2023-05-07T09:27:08;20.50;93.00
78289;DHT22;67539;48.752;12.922;2023-05-07T09:29:43;20.50;92.30
78289;DHT22;67539;48.752;12.922;2023-05-07T09:32:14;20.50;92.80
78289;DHT22;67539;48.752;12.922;2023-05-07T09:34:43;20.60;92.70
78289;DHT22;67539;48.752;12.922;2023-05-07T09:37:13;20.60;92.00
78289;DHT22;67539;48.752;12.922;2023-05-07T09:39:43;20.70;92.60
78289;DHT22;67539;48.752;12.922;2023-05-07T09:42:14;20.70;93.80
78289;DHT22;67539;48.752;12.922;2023-05-07T09:44:44;20.90;92.90
78289;DHT22;67539;48.752;12.922;2023-05-07T09:47:19;20.90;92.80
78289;DHT22;67539;48.752;12.922;2023-05-07T09:49:55;21.00;92.30
78289;DHT22;67539;48.752;12.922;2023-05-07T09:52:26;21.10;92.90
78289;DHT22;67539;48.752;12.922;2023-05-07T09:55:03;21.20;91.00
78289;DHT22;67539;48.752;12.922;2023-05-07T09:57:34;21.30;89.80
78289;DHT22;67539;48.752;12.922;2023-05-07T10:00:08;21.30;91.10
78289;DHT22;67539;48.752;12.922;2023-05-07T10:02:56;21.40;91.00
78289;DHT22;67539;48.752;12.922;2023-05-07T10:05:34;21.50;90.30
78289;DHT22;67539;48.752;12.922;2023-05-07T10:08:03;21.50;91.60
78289;DHT22;67539;48.752;12.922;2023-05-07T10:10:35;21.70;92.00
78289;DHT22;67539;48.752;12.922;2023-05-07T10:13:07;21.80;87.90
78289;DHT22;67539;48.752;12.922;2023-05-07T10:15:41;21.80;89.80
78289;DHT22;67539;48.752;12.922;2023-05-07T10:18:12;21.90;89.00
78289;DHT22;67539;48.752;12.922;2023-05-07T10:20:45;21.90;89.10
78289;DHT22;67539;48.752;12.922;2023-05-07T10:23:19;21.90;87.90
78289;DHT22;67539;48.752;12.922;2023-05-07T10:25:54;21.90;86.30
78289;DHT22;67539;48.752;12.922;2023-05-07T10:28:33;22.00;84.90
78289;DHT22;67539;48.752;12.922;2023-05-07T10:31:10;22.10;88.10
78289;DHT22;67539;48.752;12.922;2023-05-07T10:33:46;22.30;88.70
78289;DHT22;67539;48.752;12.922;2023-05-07T10:36:17;22.40;88.00
78289;DHT22;67539;48.752;12.922;2023-05-07T10:38:46;22.40;88.30
78289;DHT22;67539;48.752;12.922;2023-05-07T10:41:16;22.60;88.20
78289;DHT22;67539;48.752;12.922;2023-05-07T10:43:47;22.70;85.10
78289;DHT22;67539;48.752;12.922;2023-05-07T10:46:27;22.80;84.90
78289;DHT22;67539;48.752;12.922;2023-05-07T10:49:11;22.90;81.30
78289;DHT22;67539;48.752;12.922;2023-05-07T10:51:46;23.00;82.20
78289;DHT22;67539;48.752;12.922;2023-05-07T10:54:34;23.10;80.70
78289;DHT22;67539;48.752;12.922;2023-05-07T10:57:33;23.20;75.80
78289;DHT22;67539;48.752;12.922;2023-05-07T11:00:42;23.20;78.30
78289;DHT22;67539;48.752;12.922;2023-05-07T11:03:19;23.40;81.80
78289;DHT22;67539;48.752;12.922;2023-05-07T11:06:11;23.50;80.30
78289;DHT22;67539;48.752;12.922;2023-05-07T11:08:53;23.50;71.10
78289;DHT22;67539;48.752;12.922;2023-05-07T11:11:46;23.50;69.50
78289;DHT22;67539;48.752;12.922;2023-05-07T11:14:46;23.40;69.30
78289;DHT22;67539;48.752;12.922;2023-05-07T11:17:27;23.30;69.60
78289;DHT22;67539;48.752;12.922;2023-05-07T11:20:06;23.20;71.00
78289;DHT22;67539;48.752;12.922;2023-05-07T11:22:56;23.20;74.10
78289;DHT22;67539;48.752;12.922;2023-05-07T11:25:39;23.30;74.50
78289;DHT22;67539;48.752;12.922;2023-05-07T11:28:15;23.40;72.50
78289;DHT22;67539;48.752;12.922;2023-05-07T11:30:52;23.40;74.60
78289;DHT22;67539;48.752;12.922;2023-05-07T11:33:23;23.50;73.00
78289;DHT22;67539;48.752;12.922;2023-05-07T11:35:53;23.70;72.70
78289;DHT22;67539;48.752;12.922;2023-05-07T11:38:26;23.80;67.90
78289;DHT22;67539;48.752;12.922;2023-05-07T11:40:56;23.70;67.90
78289;DHT22;67539;48.752;12.922;2023-05-07T11:43:25;23.60;68.60
78289;DHT22;67539;48.752;12.922;2023-05-07T11:45:54;23.60;73.00
78289;DHT22;67539;48.752;12.922;2023-05-07T11:48:23;23.70;70.30
78289;DHT22;67539;48.752;12.922;2023-05-07T11:50:52;23.80;72.00
78289;DHT22;67539;48.752;12.922;2023-05-07T11:53:25;24.10;72.30
78289;DHT22;67539;48.752;12.922;2023-05-07T11:55:55;24.10;66.50
78289;DHT22;67539;48.752;12.922;2023-05-07T11:58:25;24.10;68.30
78289;DHT22;67539;48.752;12.922;2023-05-07T12:00:54;24.20;66.40
78289;DHT22;67539;48.752;12.922;2023-05-07T12:03:23;24.30;67.60
78289;DHT22;67539;48.752;12.922;2023-05-07T12:05:54;24.50;68.00
78289;DHT22;67539;48.752;12.922;2023-05-07T12:08:22;24.70;69.80
78289;DHT22;67539;48.752;12.922;2023-05-07T12:10:50;24.90;69.70
78289;DHT22;67539;48.752;12.922;2023-05-07T12:13:21;25.20;69.80
78289;DHT22;67539;48.752;12.922;2023-05-07T12:15:51;25.20;68.70
78289;DHT22;67539;48.752;12.922;2023-05-07T12:18:20;25.30;69.10
78289;DHT22;67539;48.752;12.922;2023-05-07T12:20:51;25.40;66.00
78289;DHT22;67539;48.752;12.922;2023-05-07T12:23:20;25.40;63.60
78289;DHT22;67539;48.752;12.922;2023-05-07T12:25:48;25.30;64.40
78289;DHT22;67539;48.752;12.922;2023-05-07T12:28:18;25.50;66.60
78289;DHT22;67539;48.752;12.922;2023-05-07T12:30:47;25.80;66.90
78289;DHT22;67539;48.752;12.922;2023-05-07T12:33:17;25.90;61.70
78289;DHT22;67539;48.752;12.922;2023-05-07T12:35:48;25.60;63.50
78289;DHT22;67539;48.752;12.922;2023-05-07T12:38:18;25.80;65.80
78289;DHT22;67539;48.752;12.922;2023-05-07T12:40:47;25.90;63.70
78289;DHT22;67539;48.752;12.922;2023-05-07T12:43:19;26.10;66.20
78289;DHT22;67539;48.752;12.922;2023-05-07T12:45:49;26.30;65.30
78289;DHT22;67539;48.752;12.922;2023-05-07T12:48:17;26.30;60.20
78289;DHT22;67539;48.752;12.922;2023-05-07T12:50:49;26.20;62.70
78289;DHT22;67539;48.752;12.922;2023-05-07T12:53:21;26.10;60.20
78289;DHT22;67539;48.752;12.922;2023-05-07T12:55:52;25.80;59.50
78289;DHT22;67539;48.752;12.922;2023-05-07T12:58:24;25.70;62.80
78289;DHT22;67539;48.752;12.922;2023-05-07T13:00:52;25.80;63.70
78289;DHT22;67539;48.752;12.922;2023-05-07T13:03:22;25.80;62.80
78289;DHT22;67539;48.752;12.922;2023-05-07T13:05:52;25.80;63.30
78289;DHT22;67539;48.752;12.922;2023-05-07T13:08:27;25.60;63.70
78289;DHT22;67539;48.752;12.922;2023-05-07T13:10:57;25.60;64.00
78289;DHT22;67539;48.752;12.922;2023-05-07T13:13:26;25.40;65.50
78289;DHT22;67539;48.752;12.922;2023-05-07T13:15:58;25.20;64.90
78289;DHT22;67539;48.752;12.922;2023-05-07T13:18:28;25.10;65.30
78289;DHT22;67539;48.752;12.922;2023-05-07T13:20:57;25.00;64.20
78289;DHT22;67539;48.752;12.922;2023-05-07T13:23:27;24.80;64.20
78289;DHT22;67539;48.752;12.922;2023-05-07T13:25:55;24.70;64.80
78289;DHT22;67539;48.752;12.922;2023-05-07T13:28:24;24.60;64.90
78289;DHT22;67539;48.752;12.922;2023-05-07T13:30:53;24.40;65.70
78289;DHT22;67539;48.752;12.922;2023-05-07T13:33:21;24.30;65.00
78289;DHT22;67539;48.752;12.922;2023-05-07T13:35:51;23.90;64.70
78289;DHT22;67539;48.752;12.922;2023-05-07T13:38:20;23.60;65.20
78289;DHT22;67539;48.752;12.922;2023-05-07T13:40:52;23.20;65.70
78289;DHT22;67539;48.752;12.922;2023-05-07T13:43:20;22.90;66.50
78289;DHT22;67539;48.752;12.922;2023-05-07T13:45:48;22.60;67.60
78289;DHT22;67539;48.752;12.922;2023-05-07T13:48:17;22.40;68.00
78289;DHT22;67539;48.752;12.922;2023-05-07T13:50:45;22.20;69.00
78289;DHT22;67539;48.752;12.922;2023-05-07T13:53:13;21.90;70.20
78289;DHT22;67539;48.752;12.922;2023-05-07T13:55:44;21.70;71.90
78289;DHT22;67539;48.752;12.922;2023-05-07T13:58:15;21.70;71.60
78289;DHT22;67539;48.752;12.922;2023-05-07T14:00:44;21.60;72.10
78289;DHT22;67539;48.752;12.922;2023-05-07T14:03:12;21.50;72.50
78289;DHT22;67539;48.752;12.922;2023-05-07T14:05:40;21.40;74.30
78289;DHT22;67539;48.752;12.922;2023-05-07T14:08:09;21.30;72.90
78289;DHT22;67539;48.752;12.922;2023-05-07T14:10:37;21.20;72.60
78289;DHT22;67539;48.752;12.922;2023-05-07T14:13:06;21.10;73.40
78289;DHT22;67539;48.752;12.922;2023-05-07T14:15:36;21.00;73.50
78289;DHT22;67539;48.752;12.922;2023-05-07T14:18:05;21.00;73.50
78289;DHT22;67539;48.752;12.922;2023-05-07T14:20:33;20.80;72.40
78289;DHT22;67539;48.752;12.922;2023-05-07T14:23:03;20.60;73.00
78289;DHT22;67539;48.752;12.922;2023-05-07T14:25:32;20.50;74.60
78289;DHT22;67539;48.752;12.922;2023-05-07T14:28:00;20.50;74.80
78289;DHT22;67539;48.752;12.922;2023-05-07T14:30:29;20.50;75.10
78289;DHT22;67539;48.752;12.922;2023-05-07T14:32:58;20.70;75.90
78289;DHT22;67539;48.752;12.922;2023-05-07T14:35:27;21.00;76.50
78289;DHT22;67539;48.752;12.922;2023-05-07T14:37:55;21.50;75.40
78289;DHT22;67539;48.752;12.922;2023-05-07T14:40:23;21.70;75.20
78289;DHT22;67539;48.752;12.922;2023-05-07T14:42:52;21.90;75.50
78289;DHT22;67539;48.752;12.922;2023-05-07T14:45:21;22.10;75.60
78289;DHT22;67539;48.752;12.922;2023-05-07T14:47:50;22.20;75.30
78289;DHT22;67539;48.752;12.922;2023-05-07T14:50:20;22.30;76.90
78289;DHT22;67539;48.752;12.922;2023-05-07T14:52:48;22.20;75.90
78289;DHT22;67539;48.752;12.922;2023-05-07T14:55:17;21.90;76.10
78289;DHT22;67539;48.752;12.922;2023-05-07T14:57:45;21.70;76.90
78289;DHT22;67539;48.752;12.922;2023-05-07T15:00:13;21.60;78.00
78289;DHT22;67539;48.752;12.922;2023-05-07T15:02:42;21.40;77.90
78289;DHT22;67539;48.752;12.922;2023-05-07T15:05:10;21.20;78.70
78289;DHT22;67539;48.752;12.922;2023-05-07T15:07:40;21.20;78.90
78289;DHT22;67539;48.752;12.922;2023-05-07T15:10:10;21.10;79.10
78289;DHT22;67539;48.752;12.922;2023-05-07T15:12:38;21.10;79.90
78289;DHT22;67539;48.752;12.922;2023-05-07T15:15:08;21.10;80.50
78289;DHT22;67539;48.752;12.922;2023-05-07T15:17:37;21.10;80.60
78289;DHT22;67539;48.752;12.922;2023-05-07T15:20:06;21.10;80.60
78289;DHT22;67539;48.752;12.922;2023-05-07T15:22:35;21.10;81.10
78289;DHT22;67539;48.752;12.922;2023-05-07T15:25:07;21.20;82.00
78289;DHT22;67539;48.752;12.922;2023-05-07T15:27:36;21.30;81.70
78289;DHT22;67539;48.752;12.922;2023-05-07T15:30:06;21.50;82.00
78289;DHT22;67539;48.752;12.922;2023-05-07T15:32:37;21.70;81.80
78289;DHT22;67539;48.752;12.922;2023-05-07T15:35:06;21.90;80.80
78289;DHT22;67539;48.752;12.922;2023-05-07T15:37:34;22.20;80.50
78289;DHT22;67539;48.752;12.922;2023-05-07T15:40:04;22.70;80.40